Time;durP1;ratioP1;P1;durP2;ratioP2;P2;SDS_P1;SDS_P2;PMS_P1;PMS_P2;Temp;Humidity;BMP_temperature;BMP_pressure;BME280_temperature;BME280_humidity;BME280_pressure;Samples;Min_cycle;Max_cycle;Signal;HPM_P1;HPM_P2
2023/04/21 00:02:25;;;;;;;22.40;19.30;;;6.70;77.90;;;;;;4987917;28;20042;-88
2023/04/21 00:04:51;;;;;;;23.65;19.15;;;6.70;78.00;;;;;;5001127;28;20045;-84
2023/04/21 00:07:18;;;;;;;24.85;20.30;;;6.70;78.20;;;;;;5003540;28;20455;-83
2023/04/21 00:09:44;;;;;;;21.15;18.60;;;6.60;78.40;;;;;;4998872;28;20414;-84
2023/04/21 00:12:10;;;;;;;22.05;18.70;;;6.60;78.40;;;;;;4992677;28;20026;-84
2023/04/21 00:14:38;;;;;;;22.30;18.45;;;6.60;78.30;;;;;;4994546;28;20030;-85
2023/04/21 00:17:04;;;;;;;21.92;18.42;;;6.60;78.50;;;;;;4992969;28;20109;-86
2023/04/21 00:19:30;;;;;;;24.58;19.08;;;6.50;78.60;;;;;;4995158;28;20109;-85
2023/04/21 00:21:58;;;;;;;22.63;18.58;;;6.50;78.80;;;;;;4986534;28;20031;-86
2023/04/21 00:24:25;;;;;;;24.15;20.10;;;6.50;78.90;;;;;;4991300;28;20126;-84
2023/04/21 00:26:50;;;;;;;22.20;19.80;;;6.50;78.90;;;;;;4984256;28;20440;-84
2023/04/21 00:29:16;;;;;;;22.35;18.98;;;6.50;78.90;;;;;;4992938;28;20060;-83
2023/04/21 00:31:42;;;;;;;25.15;20.70;;;6.40;78.90;;;;;;4991033;28;20038;-84
2023/04/21 00:34:08;;;;;;;24.05;20.10;;;6.40;79.10;;;;;;4998972;28;20057;-84
2023/04/21 00:36:34;;;;;;;22.27;19.88;;;6.40;79.20;;;;;;4996279;28;20057;-83
2023/04/21 00:39:00;;;;;;;22.85;19.50;;;6.40;79.30;;;;;;5003792;28;20026;-89
2023/04/21 00:41:27;;;;;;;22.52;19.35;;;6.50;79.10;;;;;;5003215;28;20026;-91
2023/04/21 00:44:07;;;;;;;24.70;19.60;;;6.40;79.20;;;;;;5016483;28;20086;-88
2023/04/21 00:46:33;;;;;;;23.77;19.48;;;6.40;79.30;;;;;;5018447;28;20040;-86
2023/04/21 00:49:02;;;;;;;24.70;20.38;;;6.30;79.40;;;;;;5014750;28;20034;-83
2023/04/21 00:51:28;;;;;;;24.13;19.77;;;6.30;79.60;;;;;;5006874;28;20042;-83
2023/04/21 00:53:55;;;;;;;22.92;19.98;;;6.30;79.80;;;;;;5008068;28;20529;-83
2023/04/21 00:56:21;;;;;;;24.45;19.58;;;6.30;79.80;;;;;;4997303;28;20060;-83
2023/04/21 00:58:48;;;;;;;24.17;19.83;;;6.30;79.90;;;;;;4984881;28;20467;-85
2023/04/21 01:01:14;;;;;;;25.85;20.92;;;6.30;79.90;;;;;;4993480;28;20034;-83
2023/04/21 01:03:40;;;;;;;23.40;19.48;;;6.40;79.80;;;;;;5007678;28;20026;-83
2023/04/21 01:06:07;;;;;;;24.85;18.65;;;6.40;79.70;;;;;;5000639;28;20050;-85
2023/04/21 01:08:34;;;;;;;24.98;20.13;;;6.40;79.90;;;;;;4992748;28;20022;-83
2023/04/21 01:11:07;;;;;;;25.58;20.20;;;6.40;80.10;;;;;;4992457;28;20054;-82
2023/04/21 01:13:33;;;;;;;23.05;20.00;;;6.50;80.20;;;;;;5000201;28;20023;-87
2023/04/21 01:15:59;;;;;;;24.88;19.75;;;6.50;80.20;;;;;;5005623;28;20034;-85
2023/04/21 01:18:24;;;;;;;25.92;20.73;;;6.50;80.10;;;;;;5006438;28;20053;-82
2023/04/21 01:20:50;;;;;;;27.08;20.17;;;6.60;80.00;;;;;;4993976;28;20100;-82
2023/04/21 01:23:17;;;;;;;25.02;20.83;;;6.60;80.10;;;;;;4992822;28;20125;-82
2023/04/21 01:25:43;;;;;;;25.23;20.65;;;6.60;80.00;;;;;;4979433;28;20056;-84
2023/04/21 01:28:08;;;;;;;24.88;19.38;;;6.60;80.00;;;;;;4986234;28;20235;-87
2023/04/21 01:30:34;;;;;;;24.02;20.35;;;6.60;79.80;;;;;;5010542;28;20017;-91
2023/04/21 01:33:00;;;;;;;25.42;21.20;;;6.60;79.80;;;;;;5019803;28;20037;-88
2023/04/21 01:35:26;;;;;;;27.27;21.23;;;6.60;79.80;;;;;;5012406;28;20416;-84
2023/04/21 01:37:51;;;;;;;24.65;20.48;;;6.60;79.90;;;;;;4994274;28;20174;-82
2023/04/21 01:40:17;;;;;;;25.08;20.38;;;6.60;79.90;;;;;;4999803;28;20046;-82
2023/04/21 01:42:44;;;;;;;26.63;21.15;;;6.70;79.90;;;;;;4993417;28;20410;-83
2023/04/21 01:45:11;;;;;;;26.05;20.95;;;6.60;80.10;;;;;;4994048;28;20041;-86
2023/04/21 01:47:37;;;;;;;26.45;21.98;;;6.60;80.10;;;;;;4996173;28;20042;-84
2023/04/21 01:50:03;;;;;;;25.52;21.13;;;6.60;80.10;;;;;;4987565;28;20074;-83
2023/04/21 01:52:28;;;;;;;24.55;20.50;;;6.70;80.10;;;;;;4985940;28;20126;-84
2023/04/21 01:54:54;;;;;;;25.77;21.27;;;6.70;80.10;;;;;;4991007;28;20463;-83
2023/04/21 01:57:20;;;;;;;29.30;24.25;;;6.60;80.20;;;;;;4987423;28;20041;-82
2023/04/21 01:59:47;;;;;;;31.05;24.55;;;6.60;80.40;;;;;;4998338;28;20081;-82
2023/04/21 02:02:12;;;;;;;28.33;24.02;;;6.60;80.40;;;;;;4992129;28;20054;-81
2023/04/21 02:04:38;;;;;;;27.95;22.88;;;6.60;80.50;;;;;;4988386;28;20027;-83
2023/04/21 02:07:04;;;;;;;31.58;23.70;;;6.60;80.50;;;;;;4991350;28;20092;-84
2023/04/21 02:09:30;;;;;;;28.20;24.38;;;6.60;80.60;;;;;;4990333;28;20025;-82
2023/04/21 02:11:56;;;;;;;30.52;24.23;;;6.60;80.50;;;;;;4991763;28;20375;-84
2023/04/21 02:14:22;;;;;;;28.58;24.70;;;6.60;80.70;;;;;;4985062;28;20034;-83
2023/04/21 02:16:48;;;;;;;30.73;25.63;;;6.60;80.80;;;;;;4993687;28;20030;-82
2023/04/21 02:19:13;;;;;;;30.67;25.70;;;6.60;81.10;;;;;;4992321;28;20077;-82
2023/04/21 02:21:39;;;;;;;33.33;25.20;;;6.60;81.30;;;;;;4985777;28;20133;-82
2023/04/21 02:24:05;;;;;;;32.00;26.13;;;6.60;81.30;;;;;;4996020;28;20077;-82
2023/04/21 02:26:31;;;;;;;33.83;26.25;;;6.60;81.50;;;;;;4998530;28;20104;-82
2023/04/21 02:28:56;;;;;;;37.13;26.45;;;6.60;81.60;;;;;;4998505;28;20515;-82
2023/04/21 02:31:22;;;;;;;32.58;26.55;;;6.60;81.70;;;;;;4994029;28;20026;-84
2023/04/21 02:33:47;;;;;;;34.28;27.38;;;6.60;82.00;;;;;;4995323;28;20037;-83
2023/04/21 02:36:13;;;;;;;35.45;29.00;;;6.60;82.00;;;;;;4994874;28;20031;-82
2023/04/21 02:38:39;;;;;;;32.88;27.60;;;6.60;82.00;;;;;;4994853;28;20026;-83
2023/04/21 02:41:05;;;;;;;34.83;28.33;;;6.70;82.10;;;;;;4985288;28;20105;-82
2023/04/21 02:43:30;;;;;;;34.47;27.95;;;6.70;82.00;;;;;;5001440;28;20454;-87
2023/04/21 02:45:56;;;;;;;38.15;29.10;;;6.70;81.90;;;;;;5007237;28;20418;-82
2023/04/21 02:48:22;;;;;;;34.85;27.92;;;6.80;82.00;;;;;;5000374;28;20072;-81
2023/04/21 02:50:52;;;;;;;35.38;28.02;;;6.80;82.00;;;;;;5012538;28;20519;-81
2023/04/21 02:53:20;;;;;;;35.10;28.33;;;6.80;82.00;;;;;;5003604;28;20026;-83
2023/04/21 02:55:46;;;;;;;34.95;27.65;;;6.80;82.20;;;;;;4995349;28;20435;-82
2023/04/21 02:58:12;;;;;;;36.58;29.80;;;6.90;82.40;;;;;;4985955;28;20026;-83
2023/04/21 03:00:38;;;;;;;36.92;29.25;;;6.90;82.70;;;;;;4994205;28;20411;-84
2023/04/21 03:03:05;;;;;;;35.47;30.63;;;6.90;83.10;;;;;;4990108;28;20050;-82
2023/04/21 03:05:31;;;;;;;37.30;30.58;;;6.90;83.30;;;;;;5002049;28;20109;-82
2023/04/21 03:07:56;;;;;;;38.85;31.67;;;6.90;83.60;;;;;;4988211;28;20926;-82
2023/04/21 03:10:22;;;;;;;39.85;30.45;;;7.00;83.90;;;;;;4994644;28;20018;-83
2023/04/21 03:12:48;;;;;;;40.35;33.15;;;7.00;84.10;;;;;;4994078;28;20031;-84
2023/04/21 03:15:15;;;;;;;41.60;33.58;;;6.90;84.60;;;;;;4996175;28;20371;-83
2023/04/21 03:17:41;;;;;;;41.95;33.00;;;6.90;85.30;;;;;;4990982;28;20030;-81
2023/04/21 03:20:08;;;;;;;42.60;34.95;;;6.90;85.90;;;;;;4997292;28;20021;-81
2023/04/21 03:22:37;;;;;;;42.25;34.63;;;6.90;86.00;;;;;;4987892;28;20150;-86
2023/04/21 03:25:04;;;;;;;42.15;34.95;;;7.00;86.20;;;;;;4992328;28;20072;-84
2023/04/21 03:27:30;;;;;;;42.28;35.63;;;7.00;86.30;;;;;;4996531;28;20069;-83
2023/04/21 03:29:55;;;;;;;43.47;34.80;;;7.00;86.70;;;;;;4992982;28;20026;-83
2023/04/21 03:32:21;;;;;;;44.08;36.05;;;7.00;86.70;;;;;;4988111;28;20423;-82
2023/04/21 03:34:49;;;;;;;48.10;38.65;;;7.10;86.80;;;;;;4988818;28;20029;-82
2023/04/21 03:37:14;;;;;;;48.03;36.80;;;7.10;86.90;;;;;;4987142;28;20081;-83
2023/04/21 03:39:40;;;;;;;47.10;38.63;;;7.10;86.90;;;;;;4989314;28;20034;-83
2023/04/21 03:42:06;;;;;;;47.10;38.13;;;7.10;87.00;;;;;;4986646;28;20045;-84
2023/04/21 03:44:31;;;;;;;48.67;39.20;;;7.10;87.30;;;;;;4995028;28;20025;-83
2023/04/21 03:46:57;;;;;;;46.05;37.50;;;7.10;87.40;;;;;;5026168;23;20151;-76
2023/04/21 03:49:23;;;;;;;46.22;36.70;;;7.10;87.50;;;;;;5028642;28;20045;-76
2023/04/21 03:51:49;;;;;;;45.45;37.13;;;7.10;87.50;;;;;;5026209;28;20065;-76
2023/04/21 03:54:15;;;;;;;49.22;38.92;;;7.10;87.70;;;;;;5029995;28;20399;-77
2023/04/21 03:56:40;;;;;;;50.53;39.67;;;7.10;87.70;;;;;;5025860;28;20474;-77
2023/04/21 03:59:06;;;;;;;51.33;40.08;;;7.10;87.70;;;;;;5029284;28;20017;-76
2023/04/21 04:01:33;;;;;;;47.22;39.00;;;7.10;87.70;;;;;;5021895;28;20418;-75
2023/04/21 04:03:59;;;;;;;49.47;38.13;;;7.10;87.70;;;;;;5027729;28;20029;-76
2023/04/21 04:06:25;;;;;;;51.90;41.13;;;7.10;87.90;;;;;;5030322;28;20033;-76
2023/04/21 04:08:51;;;;;;;51.22;40.42;;;7.10;88.00;;;;;;5035661;28;20068;-77
2023/04/21 04:11:16;;;;;;;51.40;40.78;;;7.00;88.10;;;;;;5023160;28;20057;-77
2023/04/21 04:13:42;;;;;;;49.60;41.42;;;7.00;88.20;;;;;;5021270;28;20072;-76
2023/04/21 04:16:08;;;;;;;52.60;42.92;;;7.00;88.30;;;;;;5037384;28;20509;-77
2023/04/21 04:18:33;;;;;;;53.08;42.25;;;6.90;88.40;;;;;;5016427;28;20028;-76
2023/04/21 04:21:05;;;;;;;53.47;42.10;;;6.90;88.70;;;;;;5012511;28;20040;-77
2023/04/21 04:23:31;;;;;;;55.25;42.70;;;6.90;88.70;;;;;;5021223;28;20117;-76
2023/04/21 04:25:56;;;;;;;56.25;44.05;;;7.00;88.70;;;;;;5024371;28;20421;-77
2023/04/21 04:28:22;;;;;;;56.33;44.00;;;6.90;88.80;;;;;;5006479;28;20018;-77
2023/04/21 04:30:48;;;;;;;55.00;43.97;;;7.00;88.90;;;;;;5003059;28;20446;-77
2023/04/21 04:33:13;;;;;;;56.15;43.83;;;6.90;89.00;;;;;;5005868;28;20037;-76
2023/04/21 04:35:39;;;;;;;58.28;43.58;;;7.00;89.10;;;;;;5015188;28;20053;-76
2023/04/21 04:38:06;;;;;;;58.13;45.03;;;7.00;89.10;;;;;;5002582;28;20054;-77
2023/04/21 04:40:32;;;;;;;58.28;46.42;;;7.00;89.10;;;;;;5007506;28;20475;-76
2023/04/21 04:42:58;;;;;;;61.35;47.13;;;6.90;89.10;;;;;;5006817;28;20135;-76
2023/04/21 04:45:27;;;;;;;59.40;45.83;;;6.90;89.30;;;;;;5007467;28;20137;-77
2023/04/21 04:47:53;;;;;;;63.22;47.70;;;6.90;89.50;;;;;;5006612;28;20039;-77
2023/04/21 04:50:18;;;;;;;62.13;46.72;;;6.90;89.60;;;;;;5012310;28;20381;-77
2023/04/21 04:52:46;;;;;;;63.88;47.15;;;7.00;89.60;;;;;;5011926;28;20140;-76
2023/04/21 04:55:12;;;;;;;61.65;47.67;;;7.00;89.60;;;;;;5007571;28;20508;-77
2023/04/21 04:57:38;;;;;;;62.38;47.75;;;7.00;89.70;;;;;;5005551;28;20510;-76
2023/04/21 05:00:09;;;;;;;68.25;49.28;;;7.00;89.70;;;;;;5010139;28;20022;-77
2023/04/21 05:02:35;;;;;;;62.75;46.58;;;6.90;89.80;;;;;;5005346;28;20158;-77
2023/04/21 05:05:01;;;;;;;63.65;49.08;;;7.00;89.80;;;;;;5011854;28;20592;-77
2023/04/21 05:07:27;;;;;;;67.68;49.38;;;6.90;89.90;;;;;;5008523;28;20037;-76
2023/04/21 05:09:53;;;;;;;64.93;46.10;;;6.90;90.00;;;;;;5009966;28;20022;-77
2023/04/21 05:12:19;;;;;;;68.85;50.00;;;6.90;90.10;;;;;;5007946;28;20060;-76
2023/04/21 05:14:44;;;;;;;68.57;50.88;;;6.90;90.20;;;;;;5006983;28;20087;-77
2023/04/21 05:17:10;;;;;;;68.80;48.95;;;6.90;90.20;;;;;;5005851;28;20068;-76
2023/04/21 05:19:36;;;;;;;65.55;49.58;;;6.90;90.30;;;;;;5001153;28;20041;-77
2023/04/21 05:22:05;;;;;;;70.45;51.45;;;6.80;90.40;;;;;;5006683;28;20818;-77
2023/04/21 05:24:33;;;;;;;67.68;48.83;;;6.80;90.50;;;;;;5008581;28;20069;-76
2023/04/21 05:27:01;;;;;;;68.35;49.85;;;6.90;90.50;;;;;;4995724;28;20053;-78
2023/04/21 05:29:27;;;;;;;74.50;54.22;;;6.90;90.50;;;;;;5005626;28;20049;-76
2023/04/21 05:31:53;;;;;;;72.25;53.65;;;6.90;90.50;;;;;;5004757;28;20062;-77
2023/04/21 05:34:18;;;;;;;69.20;50.47;;;7.00;90.50;;;;;;4998193;28;20115;-78
2023/04/21 05:36:44;;;;;;;72.13;51.80;;;7.00;90.50;;;;;;5005923;28;20037;-78
2023/04/21 05:39:10;;;;;;;66.63;48.08;;;7.10;90.60;;;;;;5004069;28;20679;-77
2023/04/21 05:41:35;;;;;;;66.93;50.00;;;7.10;90.60;;;;;;5002737;28;20026;-76
2023/04/21 05:44:01;;;;;;;69.30;49.85;;;7.10;90.60;;;;;;5001348;28;20041;-78
2023/04/21 05:46:29;;;;;;;68.93;50.13;;;7.30;90.60;;;;;;5010455;28;20277;-77
2023/04/21 05:48:54;;;;;;;69.07;48.75;;;7.30;90.40;;;;;;4999341;28;20021;-76
2023/04/21 05:51:20;;;;;;;67.57;50.70;;;7.30;90.30;;;;;;5001986;28;20144;-77
2023/04/21 05:53:45;;;;;;;69.20;51.33;;;7.30;90.30;;;;;;5006644;28;20034;-80
2023/04/21 05:56:12;;;;;;;66.40;48.47;;;7.40;90.30;;;;;;5002999;28;20071;-81
2023/04/21 05:58:38;;;;;;;68.75;50.65;;;7.40;90.20;;;;;;5007681;28;20045;-77
2023/04/21 06:01:05;;;;;;;70.80;50.67;;;7.40;90.20;;;;;;5008533;28;20053;-75
2023/04/21 06:03:31;;;;;;;70.55;50.63;;;7.40;90.20;;;;;;5004479;28;20038;-79
2023/04/21 06:05:59;;;;;;;66.28;48.75;;;7.50;90.20;;;;;;5009208;28;20049;-78
2023/04/21 06:08:25;;;;;;;67.90;49.22;;;7.50;90.20;;;;;;5000160;28;20061;-77
2023/04/21 06:10:51;;;;;;;71.55;51.30;;;7.50;90.10;;;;;;5003051;28;20030;-77
2023/04/21 06:13:17;;;;;;;70.18;50.90;;;7.40;90.10;;;;;;4997617;28;20027;-77
2023/04/21 06:15:42;;;;;;;73.70;51.83;;;7.60;90.30;;;;;;5009323;28;20076;-79
2023/04/21 06:18:08;;;;;;;68.45;50.92;;;7.60;90.30;;;;;;5002974;28;20053;-77
2023/04/21 06:20:34;;;;;;;71.60;53.35;;;7.70;90.30;;;;;;5012985;28;20361;-75
2023/04/21 06:23:00;;;;;;;67.03;51.13;;;7.80;90.10;;;;;;5010098;28;20057;-78
2023/04/21 06:25:25;;;;;;;70.82;51.50;;;7.90;90.10;;;;;;5002109;28;20372;-77
2023/04/21 06:27:51;;;;;;;68.00;50.17;;;7.90;90.00;;;;;;5000020;28;20085;-78
2023/04/21 06:30:17;;;;;;;67.25;50.17;;;8.00;89.80;;;;;;5010548;28;20390;-77
2023/04/21 06:32:44;;;;;;;65.57;49.15;;;8.10;89.70;;;;;;5010777;28;20030;-75
2023/04/21 06:35:11;;;;;;;65.30;49.42;;;8.20;89.50;;;;;;5013770;28;20024;-75
2023/04/21 06:37:37;;;;;;;66.28;48.55;;;8.30;89.40;;;;;;5012687;28;20037;-74
2023/04/21 06:40:03;;;;;;;63.50;48.55;;;8.40;89.10;;;;;;5011350;28;20556;-75
2023/04/21 06:42:32;;;;;;;65.00;50.25;;;8.40;88.90;;;;;;5004717;28;20646;-78
2023/04/21 06:45:00;;;;;;;66.40;50.05;;;8.40;88.90;;;;;;5008864;28;20040;-78
2023/04/21 06:47:28;;;;;;;62.53;47.75;;;8.50;88.80;;;;;;5004996;28;20045;-78
2023/04/21 06:49:55;;;;;;;61.42;48.17;;;8.50;88.60;;;;;;5007606;28;20060;-80
2023/04/21 06:52:22;;;;;;;63.92;48.00;;;8.50;88.60;;;;;;5016643;28;20087;-79
2023/04/21 06:54:48;;;;;;;64.75;50.13;;;8.50;88.70;;;;;;5010226;28;20037;-79
2023/04/21 06:57:14;;;;;;;64.25;48.42;;;8.60;88.70;;;;;;5002552;28;20038;-74
2023/04/21 06:59:40;;;;;;;62.40;48.33;;;8.60;88.50;;;;;;5010497;28;20127;-75
2023/04/21 07:02:06;;;;;;;62.35;49.00;;;8.70;88.30;;;;;;5006053;28;20045;-75
2023/04/21 07:04:32;;;;;;;59.88;48.70;;;8.70;87.90;;;;;;5006372;28;20026;-74
2023/04/21 07:06:58;;;;;;;64.22;48.45;;;8.80;88.10;;;;;;5007192;28;20124;-76
2023/04/21 07:09:23;;;;;;;62.03;46.40;;;9.00;87.90;;;;;;5007256;28;20541;-76
2023/04/21 07:11:49;;;;;;;58.28;45.72;;;9.10;87.60;;;;;;5011651;28;20167;-75
2023/04/21 07:14:16;;;;;;;56.75;46.20;;;9.20;87.40;;;;;;5006103;28;20454;-74
2023/04/21 07:16:42;;;;;;;55.63;45.92;;;9.30;87.00;;;;;;5007748;28;20848;-75
2023/04/21 07:19:07;;;;;;;56.00;45.63;;;9.30;86.60;;;;;;5010856;28;20451;-75
2023/04/21 07:21:35;;;;;;;58.00;45.75;;;9.50;86.70;;;;;;5008176;28;20113;-76
2023/04/21 07:24:01;;;;;;;57.00;44.97;;;9.60;86.50;;;;;;5011734;28;20037;-75
2023/04/21 07:26:27;;;;;;;54.28;44.55;;;9.60;85.90;;;;;;5001626;28;20103;-75
2023/04/21 07:28:57;;;;;;;52.92;42.40;;;9.90;86.20;;;;;;5007271;28;20017;-76
2023/04/21 07:31:23;;;;;;;50.08;40.92;;;10.00;85.20;;;;;;5007807;28;20450;-75
2023/04/21 07:33:49;;;;;;;51.17;42.65;;;10.00;83.90;;;;;;5011586;28;20087;-78
2023/04/21 07:36:15;;;;;;;49.08;41.17;;;10.10;84.30;;;;;;5007350;28;20026;-75
2023/04/21 07:38:42;;;;;;;48.38;40.05;;;10.40;84.40;;;;;;5005214;28;20442;-76
2023/04/21 07:41:11;;;;;;;43.08;37.80;;;10.60;83.80;;;;;;5005780;28;20091;-76
2023/04/21 07:43:37;;;;;;;43.55;36.80;;;10.60;82.40;;;;;;5002422;28;20114;-76
2023/04/21 07:46:03;;;;;;;40.15;35.17;;;10.70;82.80;;;;;;5011731;28;20125;-75
2023/04/21 07:48:29;;;;;;;39.15;34.05;;;10.60;80.70;;;;;;5009907;28;20533;-76
2023/04/21 07:50:54;;;;;;;40.28;34.30;;;10.60;81.20;;;;;;5013714;28;20504;-76
2023/04/21 07:53:20;;;;;;;39.30;32.97;;;10.50;80.90;;;;;;5013562;28;20076;-76
2023/04/21 07:55:46;;;;;;;37.20;31.98;;;10.30;80.90;;;;;;5010660;28;20636;-76
2023/04/21 07:58:12;;;;;;;35.60;31.55;;;10.20;81.00;;;;;;5013246;28;20022;-76
2023/04/21 08:00:38;;;;;;;36.78;30.80;;;10.30;81.00;;;;;;5008605;28;20018;-76
2023/04/21 08:03:04;;;;;;;37.47;31.30;;;10.20;81.10;;;;;;5011702;28;20079;-74
2023/04/21 08:05:31;;;;;;;35.95;31.33;;;10.10;80.70;;;;;;5014551;28;20380;-74
2023/04/21 08:07:57;;;;;;;39.40;31.98;;;10.10;81.20;;;;;;5012684;28;20539;-74
2023/04/21 08:10:23;;;;;;;37.20;31.63;;;10.10;81.00;;;;;;5005534;28;20054;-76
2023/04/21 08:12:50;;;;;;;38.42;32.53;;;10.10;81.00;;;;;;5007525;28;20044;-76
2023/04/21 08:15:15;;;;;;;35.72;30.35;;;10.20;80.70;;;;;;5009334;28;20472;-76
2023/04/21 08:17:41;;;;;;;34.63;29.27;;;10.30;80.90;;;;;;5008168;28;20038;-75
2023/04/21 08:20:08;;;;;;;30.88;27.42;;;10.50;79.90;;;;;;5008371;28;20022;-74
2023/04/21 08:22:36;;;;;;;32.35;26.63;;;10.90;78.80;;;;;;5008131;28;20057;-74
2023/04/21 08:25:03;;;;;;;30.15;25.67;;;11.10;77.20;;;;;;5010881;28;20477;-75
2023/04/21 08:27:28;;;;;;;30.58;26.70;;;11.10;76.90;;;;;;5008964;28;20041;-76
2023/04/21 08:29:54;;;;;;;30.30;26.40;;;11.00;76.30;;;;;;5006779;28;20356;-75
2023/04/21 08:32:23;;;;;;;31.00;25.85;;;11.10;76.90;;;;;;5006813;28;20469;-76
2023/04/21 08:34:52;;;;;;;28.80;25.27;;;11.10;76.60;;;;;;5004252;28;20117;-76
2023/04/21 08:37:19;;;;;;;30.00;25.90;;;11.10;77.30;;;;;;5013321;28;20596;-77
2023/04/21 08:39:45;;;;;;;29.17;25.40;;;11.10;76.30;;;;;;5006227;28;20487;-75
2023/04/21 08:42:18;;;;;;;28.98;25.55;;;11.10;75.80;;;;;;5006304;28;20056;-75
2023/04/21 08:44:44;;;;;;;27.95;24.65;;;11.10;76.50;;;;;;5006162;28;20061;-77
2023/04/21 08:47:12;;;;;;;28.88;25.30;;;11.00;76.70;;;;;;5008614;28;20049;-76
2023/04/21 08:49:39;;;;;;;29.13;24.95;;;11.00;76.60;;;;;;5012884;28;20021;-75
2023/04/21 08:52:05;;;;;;;29.85;24.98;;;11.10;77.00;;;;;;5009625;28;20030;-76
2023/04/21 08:54:31;;;;;;;28.17;25.00;;;11.10;75.80;;;;;;5014252;28;20033;-75
2023/04/21 08:56:57;;;;;;;27.88;24.15;;;11.50;75.60;;;;;;5002622;28;20079;-76
2023/04/21 08:59:23;;;;;;;30.00;24.20;;;11.80;74.80;;;;;;5006117;28;20030;-77
2023/04/21 09:02:08;;;;;;;26.05;22.67;;;12.10;73.60;;;;;;5011228;28;20061;-75
2023/04/21 09:04:42;;;;;;;25.58;22.77;;;12.20;73.00;;;;;;5009966;28;20489;-74
2023/04/21 09:07:08;;;;;;;23.75;21.17;;;12.30;72.30;;;;;;5006953;28;20049;-78
2023/04/21 09:09:55;;;;;;;24.38;21.27;;;12.30;70.80;;;;;;5013218;28;20030;-77
2023/04/21 09:12:21;;;;;;;23.35;20.67;;;12.10;69.70;;;;;;5009553;28;20063;-78
2023/04/21 09:14:47;;;;;;;24.88;21.95;;;11.80;70.20;;;;;;5006472;28;20034;-77
2023/04/21 09:17:16;;;;;;;25.15;21.33;;;11.70;70.70;;;;;;5012938;28;20026;-77
2023/04/21 09:19:41;;;;;;;23.80;21.25;;;11.70;71.40;;;;;;5009509;28;20057;-77
2023/04/21 09:22:07;;;;;;;25.98;22.95;;;11.80;71.90;;;;;;5008555;28;20104;-77
2023/04/21 09:24:33;;;;;;;25.17;22.48;;;12.00;71.60;;;;;;5005660;28;20119;-76
2023/04/21 09:27:02;;;;;;;25.92;22.75;;;12.00;71.20;;;;;;5001422;28;20072;-76
2023/04/21 09:29:28;;;;;;;27.25;22.05;;;12.10;70.50;;;;;;5006375;28;20067;-76
2023/04/21 09:31:54;;;;;;;25.33;22.55;;;12.10;70.20;;;;;;5004528;28;20045;-74
2023/04/21 09:34:24;;;;;;;24.40;21.63;;;12.20;70.90;;;;;;5006047;28;20061;-74
2023/04/21 09:37:03;;;;;;;25.83;22.63;;;12.30;70.10;;;;;;5007487;28;20026;-77
2023/04/21 09:39:33;;;;;;;25.05;21.33;;;12.20;70.50;;;;;;4999722;28;20026;-75
2023/04/21 09:42:00;;;;;;;24.40;21.50;;;12.20;69.80;;;;;;5002276;28;20060;-75
2023/04/21 09:44:26;;;;;;;25.52;22.83;;;12.30;69.80;;;;;;5007915;28;20404;-75
2023/04/21 09:47:01;;;;;;;24.95;21.95;;;12.30;69.60;;;;;;5005558;28;20184;-75
2023/04/21 09:49:30;;;;;;;26.45;23.50;;;12.30;70.30;;;;;;5007023;28;20014;-73
2023/04/21 09:51:59;;;;;;;27.02;23.45;;;12.50;69.90;;;;;;4998993;28;20077;-74
2023/04/21 09:54:32;;;;;;;26.52;23.58;;;12.70;69.50;;;;;;5003526;28;20029;-75
2023/04/21 09:57:00;;;;;;;26.23;23.13;;;12.70;68.60;;;;;;4995501;28;20069;-75
2023/04/21 09:59:31;;;;;;;25.35;22.67;;;13.00;70.30;;;;;;5003117;28;20045;-75
2023/04/21 10:01:59;;;;;;;24.05;20.42;;;13.30;67.80;;;;;;5005518;28;20717;-75
2023/04/21 10:04:27;;;;;;;22.92;20.45;;;13.20;66.20;;;;;;5006918;28;20081;-75
2023/04/21 10:06:53;;;;;;;23.88;20.92;;;13.40;65.60;;;;;;5001336;28;20061;-77
2023/04/21 10:09:23;;;;;;;21.20;18.90;;;13.70;65.70;;;;;;5004395;28;20041;-77
2023/04/21 10:11:49;;;;;;;23.10;20.60;;;13.80;63.90;;;;;;5013091;28;20414;-75
2023/04/21 10:14:15;;;;;;;22.80;19.00;;;14.00;64.70;;;;;;5029048;28;20037;-77
2023/04/21 10:16:41;;;;;;;21.13;18.15;;;14.10;62.50;;;;;;5021087;28;20033;-76
2023/04/21 10:19:26;;;;;;;21.95;18.80;;;14.20;62.50;;;;;;5017053;28;20574;-76
2023/04/21 10:21:56;;;;;;;21.25;18.95;;;14.40;62.60;;;;;;5018847;28;20063;-77
2023/04/21 10:24:22;;;;;;;21.35;17.73;;;14.90;61.30;;;;;;5016704;28;20025;-77
2023/04/21 10:26:49;;;;;;;18.15;16.25;;;15.00;59.80;;;;;;5011508;28;20460;-77
2023/04/21 10:29:15;;;;;;;18.83;15.27;;;15.20;58.40;;;;;;5006000;28;20022;-79
2023/04/21 10:31:52;;;;;;;18.13;15.88;;;15.10;57.40;;;;;;5008990;28;20018;-80
2023/04/21 10:34:37;;;;;;;18.27;15.13;;;15.10;57.50;;;;;;5014167;28;20564;-78
2023/04/21 10:37:03;;;;;;;17.27;15.38;;;15.10;57.50;;;;;;5010780;28;20076;-78
2023/04/21 10:39:55;;;;;;;19.35;16.55;;;15.10;56.70;;;;;;5002383;28;20026;-77
2023/04/21 10:42:27;;;;;;;18.27;16.38;;;15.20;58.40;;;;;;4998954;28;20040;-77
2023/04/21 10:44:56;;;;;;;18.90;16.67;;;15.40;57.50;;;;;;4999119;28;20136;-76
2023/04/21 10:47:26;;;;;;;19.80;17.35;;;15.60;57.40;;;;;;4998949;28;20053;-77
2023/04/21 10:49:52;;;;;;;17.85;15.98;;;15.80;55.90;;;;;;5000431;28;20105;-77
2023/04/21 10:52:19;;;;;;;19.75;17.25;;;15.80;55.80;;;;;;5003355;28;20112;-79
2023/04/21 10:54:45;;;;;;;18.33;16.48;;;15.70;56.30;;;;;;4998043;28;20141;-78
2023/04/21 10:57:15;;;;;;;18.80;16.80;;;15.60;56.40;;;;;;5003764;28;20102;-79
2023/04/21 10:59:41;;;;;;;20.40;18.20;;;15.00;57.80;;;;;;4999678;28;20168;-79
2023/04/21 11:02:11;;;;;;;18.90;16.75;;;14.90;57.80;;;;;;4996056;28;20419;-80
2023/04/21 11:04:46;;;;;;;19.02;17.00;;;14.90;58.50;;;;;;4999012;28;20030;-80
2023/04/21 11:07:13;;;;;;;19.65;16.63;;;15.10;59.00;;;;;;5001878;28;20176;-79
2023/04/21 11:09:40;;;;;;;17.70;15.38;;;15.40;57.80;;;;;;5001322;28;20045;-78
2023/04/21 11:12:09;;;;;;;16.50;14.27;;;15.90;57.90;;;;;;5005213;28;20410;-77
2023/04/21 11:14:36;;;;;;;17.60;15.20;;;16.30;54.80;;;;;;5035445;28;20044;-76
2023/04/21 11:17:03;;;;;;;16.98;15.05;;;16.30;54.30;;;;;;5031805;28;20032;-77
2023/04/21 11:19:31;;;;;;;16.35;14.65;;;16.60;54.50;;;;;;5030281;28;20018;-80
2023/04/21 11:21:57;;;;;;;17.45;15.15;;;17.00;53.60;;;;;;5026529;28;20370;-81
2023/04/21 11:24:23;;;;;;;17.65;15.35;;;17.20;52.80;;;;;;5011113;28;20029;-81
2023/04/21 11:26:49;;;;;;;17.05;14.68;;;16.90;52.90;;;;;;5013068;28;20040;-78
2023/04/21 11:29:16;;;;;;;19.10;14.70;;;16.80;53.20;;;;;;5007062;28;20304;-81
2023/04/21 11:31:44;;;;;;;15.50;13.82;;;16.80;54.30;;;;;;5007765;28;20061;-81
2023/04/21 11:34:10;;;;;;;14.40;12.90;;;16.90;51.80;;;;;;5009574;28;20469;-81
2023/04/21 11:36:38;;;;;;;17.27;13.65;;;16.90;50.50;;;;;;5012358;28;20041;-82
2023/04/21 11:39:12;;;;;;;15.38;13.77;;;16.90;49.80;;;;;;5017982;28;20079;-77
2023/04/21 11:41:40;;;;;;;17.02;13.85;;;16.90;49.50;;;;;;5002449;28;20099;-81
2023/04/21 11:44:06;;;;;;;14.40;12.65;;;16.70;49.50;;;;;;5003993;28;20022;-80
2023/04/21 11:46:32;;;;;;;16.48;13.98;;;16.80;51.90;;;;;;5003167;28;20145;-78
2023/04/21 11:49:03;;;;;;;16.50;13.20;;;16.80;50.90;;;;;;5009122;28;20591;-81
2023/04/21 11:51:39;;;;;;;16.80;13.68;;;17.10;50.50;;;;;;5009122;28;20046;-82
2023/04/21 11:54:11;;;;;;;16.40;14.27;;;17.40;50.00;;;;;;5012440;28;20450;-78
2023/04/21 11:56:41;;;;;;;16.95;15.15;;;17.60;49.20;;;;;;5013795;28;20034;-78
2023/04/21 11:59:11;;;;;;;18.15;14.27;;;17.40;50.40;;;;;;5024476;28;20053;-80
2023/04/21 12:01:48;;;;;;;16.13;13.82;;;17.20;49.30;;;;;;5015732;28;20041;-78
2023/04/21 12:04:19;;;;;;;15.57;13.88;;;17.40;50.40;;;;;;5010012;28;20053;-80
2023/04/21 12:06:46;;;;;;;16.48;14.23;;;18.00;49.60;;;;;;5018403;28;20025;-82
2023/04/21 12:09:19;;;;;;;16.02;14.32;;;18.30;47.40;;;;;;5009560;28;20080;-81
2023/04/21 12:11:53;;;;;;;16.20;13.98;;;18.30;47.70;;;;;;4999000;28;20038;-78
2023/04/21 12:14:21;;;;;;;15.35;13.75;;;17.90;48.00;;;;;;5009182;28;20026;-81
2023/04/21 12:16:52;;;;;;;15.05;13.45;;;17.50;47.70;;;;;;5012315;28;20029;-82
2023/04/21 12:19:40;;;;;;;16.25;14.05;;;17.10;49.00;;;;;;5008100;28;20076;-80
2023/04/21 12:22:11;;;;;;;15.98;13.43;;;17.00;50.20;;;;;;5016142;28;20034;-79
2023/04/21 12:24:37;;;;;;;15.10;13.50;;;17.10;49.20;;;;;;5015730;28;20484;-76
2023/04/21 12:27:04;;;;;;;14.15;12.00;;;17.10;49.30;;;;;;5009703;28;20050;-81
2023/04/21 12:29:30;;;;;;;15.40;13.48;;;17.20;48.50;;;;;;5013298;28;20022;-80
2023/04/21 12:31:55;;;;;;;15.43;13.38;;;17.10;48.60;;;;;;5009386;28;20363;-80
2023/04/21 12:34:21;;;;;;;18.95;13.85;;;17.10;49.30;;;;;;5012933;28;20108;-80